Time;durP1;ratioP1;P1;durP2;ratioP2;P2;SDS_P1;SDS_P2;PMS_P1;PMS_P2;Temp;Humidity;BMP_temperature;BMP_pressure;BME280_temperature;BME280_humidity;BME280_pressure;Samples;Min_cycle;Max_cycle;Signal;HPM_P1;HPM_P2
2023/10/01 00:03:16;;;;;;;4.00;2.60;;;19.40;74.70;;;;;;10489951;28;20530;-56
2023/10/01 00:08:17;;;;;;;3.05;2.45;;;19.40;74.70;;;;;;10489899;28;20028;-56
2023/10/01 00:13:20;;;;;;;3.70;2.75;;;19.40;74.70;;;;;;10489879;28;20029;-58
2023/10/01 00:18:21;;;;;;;4.57;2.88;;;19.40;74.70;;;;;;10488306;28;20407;-57
2023/10/01 00:23:22;;;;;;;4.47;3.47;;;19.40;74.80;;;;;;10488419;28;20039;-57
2023/10/01 00:28:23;;;;;;;3.05;2.38;;;19.40;74.80;;;;;;10489242;28;20378;-57
2023/10/01 00:33:25;;;;;;;3.85;3.08;;;19.40;74.80;;;;;;10489380;28;20056;-57
2023/10/01 00:38:27;;;;;;;2.85;2.50;;;19.40;74.80;;;;;;10489702;28;20032;-56
2023/10/01 00:43:31;;;;;;;4.13;3.00;;;19.40;74.80;;;;;;10489637;28;20032;-57
2023/10/01 00:48:32;;;;;;;4.30;3.00;;;19.40;74.80;;;;;;10488550;28;20107;-57
2023/10/01 00:53:33;;;;;;;4.88;3.53;;;19.40;74.70;;;;;;10488717;28;20486;-57
2023/10/01 00:58:34;;;;;;;3.35;2.53;;;19.40;74.60;;;;;;10488897;28;20046;-57
2023/10/01 01:03:36;;;;;;;4.28;2.72;;;19.40;74.70;;;;;;10489063;28;20434;-56
2023/10/01 01:08:46;;;;;;;5.57;3.08;;;19.40;74.70;;;;;;10487527;28;20029;-57
2023/10/01 01:13:49;;;;;;;4.50;3.20;;;19.30;74.60;;;;;;10488851;28;20024;-57
2023/10/01 01:18:51;;;;;;;3.80;3.00;;;19.30;74.60;;;;;;10488482;28;20129;-57
2023/10/01 01:23:53;;;;;;;3.55;2.78;;;19.30;74.60;;;;;;10488473;28;20064;-58
2023/10/01 01:28:54;;;;;;;5.53;3.28;;;19.30;74.70;;;;;;10486535;28;20056;-56
2023/10/01 01:33:57;;;;;;;3.80;2.45;;;19.30;74.60;;;;;;10488022;28;20048;-57
2023/10/01 01:39:26;;;;;;;3.22;2.42;;;19.30;74.60;;;;;;10495612;28;20025;-56
2023/10/01 01:44:26;;;;;;;2.63;2.08;;;19.30;74.70;;;;;;10495135;28;20104;-57
2023/10/01 01:49:27;;;;;;;5.50;2.92;;;19.30;74.60;;;;;;10495612;28;20408;-57
2023/10/01 01:54:31;;;;;;;4.22;3.15;;;19.30;74.60;;;;;;10496447;28;20380;-57
2023/10/01 01:59:33;;;;;;;4.05;3.15;;;19.30;75.30;;;;;;10495343;28;20500;-57
2023/10/01 02:04:35;;;;;;;4.28;2.90;;;19.30;74.60;;;;;;10495390;28;20032;-58
2023/10/01 02:09:37;;;;;;;3.30;2.20;;;19.30;74.70;;;;;;10494822;28;20024;-57
2023/10/01 02:14:40;;;;;;;4.25;3.05;;;19.30;74.60;;;;;;10495296;28;20108;-56
2023/10/01 02:19:47;;;;;;;4.97;2.92;;;19.30;74.60;;;;;;10494173;28;20047;-57
2023/10/01 02:25:00;;;;;;;3.20;2.47;;;19.30;74.60;;;;;;10494750;28;20464;-57
2023/10/01 02:30:14;;;;;;;4.32;3.45;;;19.30;74.60;;;;;;10494281;28;20036;-57
2023/10/01 02:35:35;;;;;;;3.72;2.78;;;19.30;74.60;;;;;;10494812;28;20059;-56
2023/10/01 02:40:40;;;;;;;4.97;2.80;;;19.30;74.50;;;;;;10493392;28;20033;-57
2023/10/01 02:45:42;;;;;;;4.20;2.90;;;19.30;74.60;;;;;;10493149;28;20043;-58
2023/10/01 02:50:54;;;;;;;3.75;2.70;;;19.30;74.60;;;;;;10493370;28;20032;-56
2023/10/01 02:56:02;;;;;;;3.65;2.75;;;19.30;74.60;;;;;;10493855;28;20243;-57
2023/10/01 03:01:13;;;;;;;4.60;2.92;;;19.30;74.60;;;;;;10492895;28;20028;-56
2023/10/01 03:06:14;;;;;;;6.03;3.13;;;19.30;74.60;;;;;;10493034;28;20638;-57
2023/10/01 03:11:16;;;;;;;3.60;2.70;;;19.20;74.50;;;;;;10492517;28;20029;-57
2023/10/01 03:26:59;;;;;;;3.70;2.63;;;19.30;74.50;;;;;;10492250;28;20547;-56
2023/10/01 03:32:27;;;;;;;2.47;2.08;;;19.30;74.50;;;;;;10491912;28;20275;-56
2023/10/01 03:37:28;;;;;;;3.95;2.65;;;19.20;74.40;;;;;;10491790;28;20457;-57
2023/10/01 03:42:33;;;;;;;4.22;2.90;;;19.20;74.40;;;;;;10491834;28;20020;-56
2023/10/01 03:47:34;;;;;;;4.45;2.97;;;19.20;74.40;;;;;;10491675;28;20058;-57
2023/10/01 03:52:41;;;;;;;3.90;2.78;;;19.20;74.40;;;;;;10491393;28;20415;-56
2023/10/01 03:57:54;;;;;;;3.33;2.20;;;19.20;74.50;;;;;;10489980;28;20083;-56
2023/10/01 04:02:55;;;;;;;4.15;2.88;;;19.20;74.40;;;;;;10490222;28;20032;-58
2023/10/01 04:07:58;;;;;;;2.78;2.25;;;19.20;74.40;;;;;;10490321;28;20017;-57
2023/10/01 04:13:01;;;;;;;3.92;2.70;;;19.20;74.40;;;;;;10488855;28;20028;-57
2023/10/01 04:23:49;;;;;;;4.00;2.40;;;19.20;74.40;;;;;;10448045;28;20040;-56
2023/10/01 04:28:54;;;;;;;3.88;2.78;;;19.20;74.30;;;;;;10458527;28;20437;-56
2023/10/01 04:33:55;;;;;;;4.53;3.25;;;19.20;74.40;;;;;;10531376;28;20036;-56
2023/10/01 04:39:00;;;;;;;3.13;2.75;;;19.20;74.40;;;;;;10531289;28;20039;-56
2023/10/01 04:44:07;;;;;;;3.55;2.55;;;19.20;74.40;;;;;;10530555;28;20024;-57
2023/10/01 04:49:08;;;;;;;4.93;3.17;;;19.20;74.40;;;;;;10495199;28;20375;-57
2023/10/01 04:54:08;;;;;;;4.10;2.83;;;19.20;74.40;;;;;;10488695;28;20039;-55
2023/10/01 04:59:10;;;;;;;4.10;2.80;;;19.20;74.40;;;;;;10488742;28;20044;-58
2023/10/01 05:04:14;;;;;;;3.70;2.67;;;19.20;74.40;;;;;;10488348;28;20383;-57
2023/10/01 05:09:15;;;;;;;3.97;2.97;;;19.20;74.40;;;;;;10488196;28;20513;-57
2023/10/01 05:14:17;;;;;;;3.45;2.38;;;19.20;74.30;;;;;;10488207;28;20032;-57
2023/10/01 05:19:23;;;;;;;3.42;2.42;;;19.20;74.40;;;;;;10488014;28;20106;-56
2023/10/01 05:24:36;;;;;;;4.20;2.97;;;19.20;74.40;;;;;;10488179;28;20381;-56
2023/10/01 05:29:39;;;;;;;3.47;2.60;;;19.20;74.40;;;;;;10501448;28;20071;-57
2023/10/01 05:34:45;;;;;;;3.70;2.78;;;19.20;74.30;;;;;;10529311;28;20098;-57
2023/10/01 05:39:57;;;;;;;4.65;2.90;;;19.20;74.30;;;;;;10526341;28;20429;-57
2023/10/01 05:44:59;;;;;;;4.38;2.20;;;19.20;74.30;;;;;;10528736;28;20036;-58
2023/10/01 05:50:08;;;;;;;4.32;3.03;;;19.20;74.30;;;;;;10490387;28;20032;-57
2023/10/01 05:55:12;;;;;;;;;;;19.20;74.30;;;;;;10490196;28;20028;-57
2023/10/01 06:00:17;;;;;;;3.90;2.80;;;19.20;74.30;;;;;;10489178;28;19947;-57
2023/10/01 06:11:04;;;;;;;3.60;2.55;;;19.20;74.20;;;;;;10489014;28;20044;-57
2023/10/01 06:16:16;;;;;;;4.43;3.03;;;19.20;74.30;;;;;;10488861;28;20040;-57
2023/10/01 06:21:23;;;;;;;3.92;2.53;;;19.10;74.20;;;;;;10490807;28;20029;-57
2023/10/01 06:26:36;;;;;;;5.25;3.25;;;19.20;74.20;;;;;;10495090;28;20028;-57
2023/10/01 06:31:52;;;;;;;3.83;2.45;;;19.20;74.20;;;;;;10526088;28;20027;-57
2023/10/01 06:36:58;;;;;;;4.78;3.33;;;19.10;74.20;;;;;;10536874;28;20622;-57
2023/10/01 06:42:18;;;;;;;3.00;2.00;;;19.10;74.20;;;;;;10537490;28;20032;-57
2023/10/01 06:47:23;;;;;;;3.85;2.53;;;19.10;74.20;;;;;;10515362;28;20021;-57
2023/10/01 06:52:29;;;;;;;3.70;2.72;;;19.20;74.20;;;;;;10495194;28;20114;-57
2023/10/01 06:57:33;;;;;;;4.03;2.80;;;19.20;74.20;;;;;;10495695;28;20048;-57
2023/10/01 07:02:34;;;;;;;4.07;2.67;;;19.20;74.10;;;;;;10494741;28;20037;-56
2023/10/01 07:07:35;;;;;;;3.72;2.67;;;19.20;74.20;;;;;;10494826;28;20029;-57
2023/10/01 07:12:38;;;;;;;3.85;2.78;;;19.20;74.10;;;;;;10493178;28;20070;-57
2023/10/01 07:17:39;;;;;;;4.25;2.65;;;19.20;74.10;;;;;;10494244;28;20101;-57
2023/10/01 07:22:44;;;;;;;3.75;2.70;;;19.20;74.70;;;;;;10493892;28;20392;-56
2023/10/01 07:27:44;;;;;;;4.18;2.65;;;19.20;74.10;;;;;;10494345;28;20460;-57
2023/10/01 07:32:45;;;;;;;3.30;2.50;;;19.20;74.10;;;;;;10532705;28;20036;-57
2023/10/01 07:37:48;;;;;;;4.13;2.70;;;19.20;74.10;;;;;;10536496;28;20036;-56
2023/10/01 07:42:54;;;;;;;3.97;2.55;;;19.20;74.10;;;;;;10535196;28;20081;-57
2023/10/01 07:47:55;;;;;;;4.07;2.80;;;19.20;74.10;;;;;;10508773;28;20028;-56
2023/10/01 07:53:03;;;;;;;4.25;3.42;;;19.20;74.10;;;;;;10492711;28;20040;-56
2023/10/01 07:58:23;;;;;;;4.07;2.70;;;19.20;74.10;;;;;;10493267;28;20040;-56
2023/10/01 08:08:37;;;;;;;4.22;2.75;;;19.30;74.00;;;;;;10492806;28;20031;-56
2023/10/01 08:13:37;;;;;;;5.82;2.88;;;19.30;74.00;;;;;;10507795;28;20667;-56
2023/10/01 08:18:46;;;;;;;5.57;3.35;;;19.30;74.00;;;;;;10491707;28;20052;-57
2023/10/01 08:23:50;;;;;;;5.20;3.20;;;19.30;74.00;;;;;;10491506;28;20364;-56
2023/10/01 08:28:57;;;;;;;5.03;3.28;;;19.30;74.00;;;;;;10498536;28;20081;-57
2023/10/01 08:34:22;;;;;;;3.55;2.70;;;19.40;74.10;;;;;;10533052;28;20666;-57
2023/10/01 08:39:33;;;;;;;4.47;3.00;;;19.40;74.10;;;;;;10533664;28;20044;-56
2023/10/01 08:45:05;;;;;;;5.75;3.50;;;19.40;74.10;;;;;;10532594;28;20028;-56
2023/10/01 08:50:27;;;;;;;3.67;2.30;;;19.40;74.10;;;;;;10448220;28;20458;-57
2023/10/01 08:55:53;;;;;;;4.22;2.67;;;19.40;74.10;;;;;;10449147;28;20491;-56
2023/10/01 09:01:12;;;;;;;4.10;2.78;;;19.50;74.20;;;;;;10449147;28;20761;-57
2023/10/01 09:06:25;;;;;;;6.03;3.50;;;19.50;74.00;;;;;;10449351;28;20055;-57
2023/10/01 09:11:42;;;;;;;4.93;2.70;;;19.50;74.10;;;;;;10448886;28;20035;-57
2023/10/01 09:16:45;;;;;;;5.15;2.95;;;19.50;74.10;;;;;;10448494;28;20052;-56
2023/10/01 09:21:47;;;;;;;4.03;2.55;;;19.60;74.10;;;;;;10447415;28;20524;-56
2023/10/01 09:26:57;;;;;;;4.50;3.53;;;19.60;74.10;;;;;;10448604;28;20555;-56
2023/10/01 09:31:59;;;;;;;5.45;3.28;;;19.60;74.10;;;;;;10514135;28;20388;-56
2023/10/01 09:37:03;;;;;;;4.88;3.30;;;19.60;74.10;;;;;;10531688;28;20032;-57
2023/10/01 09:42:25;;;;;;;4.55;3.20;;;19.60;74.10;;;;;;10532069;28;20025;-56
2023/10/01 09:47:27;;;;;;;5.15;3.65;;;19.60;74.10;;;;;;10509376;28;20033;-56
2023/10/01 09:52:34;;;;;;;4.28;2.70;;;19.70;74.20;;;;;;10489035;28;20032;-57
2023/10/01 09:57:37;;;;;;;3.75;2.63;;;19.70;74.10;;;;;;10492145;28;20025;-57
2023/10/01 10:02:40;;;;;;;5.13;2.95;;;19.70;74.10;;;;;;10497474;28;20032;-56
2023/10/01 10:07:41;;;;;;;5.20;3.13;;;19.80;74.10;;;;;;10495733;28;20033;-57
2023/10/01 10:12:42;;;;;;;5.63;2.85;;;19.80;74.00;;;;;;10497433;28;20048;-56
2023/10/01 10:17:58;;;;;;;7.13;3.17;;;19.90;74.00;;;;;;10496824;28;20048;-57
2023/10/01 10:23:13;;;;;;;4.78;2.83;;;19.90;74.00;;;;;;10496341;28;20039;-57
2023/10/01 10:28:29;;;;;;;5.82;3.08;;;19.90;74.00;;;;;;10496822;28;20035;-57
2023/10/01 10:33:38;;;;;;;6.43;3.55;;;19.90;74.00;;;;;;10538178;28;20028;-57
2023/10/01 10:38:51;;;;;;;3.40;2.63;;;19.80;74.10;;;;;;10537536;28;20052;-57
2023/10/01 10:44:09;;;;;;;6.15;3.55;;;19.80;74.20;;;;;;10537993;28;20039;-57
2023/10/01 10:49:10;;;;;;;5.85;3.40;;;19.80;74.30;;;;;;10500675;28;20024;-57
2023/10/01 10:54:16;;;;;;;7.25;3.40;;;19.80;74.20;;;;;;10493822;28;20533;-55
2023/10/01 10:59:17;;;;;;;4.82;3.13;;;19.90;74.20;;;;;;10495055;28;20033;-56
2023/10/01 11:04:18;;;;;;;5.45;3.63;;;19.90;74.30;;;;;;10495362;28;20028;-56
2023/10/01 11:09:26;;;;;;;6.03;2.85;;;19.90;74.20;;;;;;10493738;28;20060;-56
2023/10/01 11:14:27;;;;;;;5.18;2.97;;;19.90;74.20;;;;;;10493750;28;20020;-55
2023/10/01 11:19:35;;;;;;;5.38;3.88;;;20.00;74.10;;;;;;10493535;28;20381;-56
2023/10/01 11:24:41;;;;;;;4.97;3.10;;;20.00;74.00;;;;;;10494485;28;20060;-57
2023/10/01 11:30:12;;;;;;;5.22;3.38;;;20.00;74.00;;;;;;10508258;28;20020;-55
2023/10/01 11:35:31;;;;;;;4.82;3.05;;;20.10;74.10;;;;;;10531120;28;20097;-56
2023/10/01 11:46:19;;;;;;;5.85;3.80;;;20.10;74.00;;;;;;10527202;28;20119;-56
2023/10/01 11:51:44;;;;;;;5.77;3.70;;;20.10;74.00;;;;;;10494139;28;20036;-56
2023/10/01 11:56:47;;;;;;;4.78;3.30;;;20.10;74.00;;;;;;10492396;28;20024;-56
2023/10/01 12:01:53;;;;;;;6.18;3.28;;;20.20;74.10;;;;;;10492707;28;20062;-55
2023/10/01 12:06:54;;;;;;;6.88;3.83;;;20.20;74.10;;;;;;10491365;28;20060;-56
2023/10/01 12:12:04;;;;;;;5.13;3.40;;;20.20;74.00;;;;;;10492232;28;20040;-55
2023/10/01 12:17:05;;;;;;;5.10;3.42;;;20.20;74.10;;;;;;10491875;28;20052;-56
2023/10/01 12:22:05;;;;;;;6.82;3.88;;;20.20;74.10;;;;;;10491204;28;20492;-55
2023/10/01 12:27:08;;;;;;;5.50;3.67;;;20.20;74.10;;;;;;10490993;28;20035;-56
2023/10/01 12:32:12;;;;;;;6.55;3.28;;;20.20;74.20;;;;;;10526062;28;20429;-56
2023/10/01 12:42:32;;;;;;;5.18;3.65;;;20.20;74.20;;;;;;10533021;28;20073;-57
2023/10/01 12:47:40;;;;;;;6.72;4.30;;;20.20;74.20;;;;;;10509895;28;20415;-55
2023/10/01 12:52:41;;;;;;;4.63;3.30;;;20.20;74.20;;;;;;10489309;28;20037;-56
2023/10/01 12:57:42;;;;;;;5.47;3.65;;;20.20;74.20;;;;;;10489875;28;20028;-56
2023/10/01 13:02:43;;;;;;;5.05;3.13;;;20.20;74.30;;;;;;10491173;28;20028;-56
2023/10/01 13:07:50;;;;;;;5.47;3.85;;;20.20;74.30;;;;;;10490464;28;20024;-56
2023/10/01 13:12:57;;;;;;;4.55;3.25;;;20.20;74.30;;;;;;10490388;28;20032;-55
2023/10/01 13:18:01;;;;;;;7.15;4.65;;;20.20;74.30;;;;;;10490203;28;20044;-57
2023/10/01 13:23:08;;;;;;;5.75;3.30;;;20.20;74.30;;;;;;10490411;28;20115;-56
2023/10/01 13:28:16;;;;;;;6.28;3.97;;;20.20;74.40;;;;;;10490967;28;20040;-56
2023/10/01 13:33:19;;;;;;;6.72;4.32;;;20.20;74.30;;;;;;10539848;28;20405;-56
2023/10/01 14:10:16;;;;;;;12.45;4.47;;;20.10;74.40;;;;;;10497156;28;20040;-56
2023/10/01 14:15:23;;;;;;;5.95;3.95;;;20.10;74.40;;;;;;10497174;28;20021;-57
2023/10/01 14:20:38;;;;;;;7.45;4.50;;;20.10;74.40;;;;;;10496243;28;20419;-56
2023/10/01 14:31:05;;;;;;;6.40;4.20;;;20.10;74.50;;;;;;10496017;28;20044;-67
2023/10/01 14:36:10;;;;;;;4.72;3.30;;;20.10;74.40;;;;;;10496061;28;20028;-56
2023/10/01 14:41:17;;;;;;;5.00;3.65;;;20.10;74.40;;;;;;10495006;28;20077;-56
2023/10/01 14:46:30;;;;;;;8.65;4.43;;;20.10;74.40;;;;;;10495698;28;20063;-56
2023/10/01 14:51:32;;;;;;;5.63;3.72;;;20.10;74.40;;;;;;10495151;28;20082;-57
2023/10/01 14:56:36;;;;;;;6.85;3.72;;;20.10;74.40;;;;;;10487226;28;20086;-56
2023/10/01 15:01:37;;;;;;;7.03;3.67;;;20.10;74.50;;;;;;10472943;28;20039;-57
2023/10/01 15:06:37;;;;;;;7.18;4.15;;;20.00;74.50;;;;;;10486529;28;20047;-55
2023/10/01 15:11:39;;;;;;;5.70;3.78;;;20.00;74.50;;;;;;10489929;28;20089;-56
2023/10/01 15:16:40;;;;;;;7.55;4.05;;;20.10;74.40;;;;;;10487078;28;20080;-55
2023/10/01 15:21:42;;;;;;;6.32;4.55;;;20.10;74.30;;;;;;10491046;28;20036;-56
2023/10/01 15:26:43;;;;;;;6.63;4.15;;;20.10;74.30;;;;;;10494033;28;20024;-56
2023/10/01 15:31:51;;;;;;;6.05;4.18;;;20.10;74.40;;;;;;10493607;28;20479;-56
2023/10/01 15:36:52;;;;;;;7.20;3.60;;;20.10;74.50;;;;;;10494235;28;20365;-56
2023/10/01 15:42:08;;;;;;;8.05;4.53;;;20.10;74.50;;;;;;10493453;28;20052;-56
2023/10/01 15:52:52;;;;;;;7.45;5.03;;;20.10;74.60;;;;;;10492563;28;20040;-56
2023/10/01 15:58:01;;;;;;;7.63;5.53;;;20.10;74.60;;;;;;10490958;28;20028;-56
2023/10/01 16:03:11;;;;;;;6.63;4.53;;;20.10;74.70;;;;;;10491053;28;20043;-56
2023/10/01 16:08:20;;;;;;;7.80;4.38;;;20.00;74.70;;;;;;10492794;28;20024;-56
2023/10/01 16:13:28;;;;;;;6.57;4.50;;;20.00;74.70;;;;;;10491889;28;20110;-56
2023/10/01 16:18:41;;;;;;;8.93;4.47;;;20.00;74.80;;;;;;10568743;27;20124;-55
2023/10/01 16:23:48;;;;;;;6.57;4.72;;;20.00;74.70;;;;;;10525231;28;20040;-56
2023/10/01 16:28:53;;;;;;;7.75;5.10;;;20.00;74.80;;;;;;10526109;28;20348;-56
2023/10/01 16:33:59;;;;;;;9.13;5.00;;;20.00;74.80;;;;;;10526085;28;20064;-56
2023/10/01 16:39:00;;;;;;;7.50;4.35;;;20.00;74.80;;;;;;10524688;28;20437;-56
2023/10/01 16:44:01;;;;;;;8.20;4.80;;;20.00;74.80;;;;;;10524108;28;20442;-56
2023/10/01 16:49:07;;;;;;;7.40;4.50;;;20.00;74.80;;;;;;10560580;28;20091;-56
2023/10/01 16:54:16;;;;;;;7.40;4.82;;;20.00;74.80;;;;;;10565972;28;20028;-55
2023/10/01 16:59:24;;;;;;;7.82;4.80;;;20.00;74.80;;;;;;10565831;28;20023;-57
2023/10/01 17:04:26;;;;;;;7.65;4.45;;;20.00;74.80;;;;;;10566789;28;20020;-56
2023/10/01 17:09:32;;;;;;;6.53;4.15;;;20.00;74.80;;;;;;10547542;28;20038;-56
2023/10/01 17:14:33;;;;;;;6.05;3.90;;;20.00;74.90;;;;;;10532353;28;20437;-56
2023/10/01 17:19:33;;;;;;;6.53;4.53;;;20.00;74.90;;;;;;10566868;28;20058;-56
2023/10/01 17:24:36;;;;;;;9.40;4.95;;;20.00;74.90;;;;;;10565729;28;20030;-56
2023/10/01 17:29:39;;;;;;;7.45;4.72;;;20.00;75.00;;;;;;10527101;28;20435;-55
2023/10/01 17:34:40;;;;;;;7.88;4.35;;;20.00;75.00;;;;;;10495937;28;20085;-56
2023/10/01 17:39:41;;;;;;;5.95;3.97;;;19.90;75.60;;;;;;10495788;28;20056;-56
2023/10/01 17:44:43;;;;;;;6.63;4.72;;;19.90;75.00;;;;;;10495046;28;20529;-56
2023/10/01 17:49:46;;;;;;;7.45;4.50;;;19.90;75.00;;;;;;10536944;28;20060;-57
2023/10/01 17:54:48;;;;;;;6.60;4.25;;;20.00;75.10;;;;;;10533884;28;20146;-55
2023/10/01 17:59:50;;;;;;;7.93;4.50;;;20.00;75.10;;;;;;10482989;28;20039;-56
2023/10/01 18:05:01;;;;;;;6.40;4.40;;;20.00;75.30;;;;;;10489498;28;20033;-57
2023/10/01 18:10:25;;;;;;;8.75;5.18;;;19.90;75.20;;;;;;10495162;28;20182;-56
2023/10/01 18:15:26;;;;;;;8.50;5.13;;;19.90;75.30;;;;;;10494456;28;20074;-56
2023/10/01 18:20:32;;;;;;;8.35;4.93;;;19.90;75.10;;;;;;10474253;28;20035;-56
2023/10/01 18:25:40;;;;;;;13.77;5.57;;;19.90;75.10;;;;;;10476971;28;20530;-56
2023/10/01 18:30:47;;;;;;;12.98;5.32;;;20.00;75.40;;;;;;10473826;28;20480;-56
2023/10/01 18:35:55;;;;;;;13.52;5.70;;;20.00;75.50;;;;;;10464885;28;20039;-56
2023/10/01 18:40:56;;;;;;;8.85;5.38;;;20.00;75.50;;;;;;10481851;28;20077;-56
2023/10/01 18:45:58;;;;;;;9.10;5.30;;;20.10;75.70;;;;;;10483161;28;20078;-56
2023/10/01 18:50:59;;;;;;;10.40;5.55;;;20.10;75.70;;;;;;10461473;28;20032;-56
2023/10/01 18:56:00;;;;;;;13.00;5.68;;;20.10;75.80;;;;;;10481581;28;20033;-56
2023/10/01 19:01:04;;;;;;;13.15;6.18;;;20.10;75.80;;;;;;10472107;28;20098;-56
2023/10/01 19:06:06;;;;;;;11.63;5.63;;;20.10;76.10;;;;;;10483045;28;20067;-56
2023/10/01 19:11:06;;;;;;;10.10;5.85;;;20.20;76.20;;;;;;10491840;28;20073;-56
2023/10/01 19:16:08;;;;;;;10.35;5.70;;;20.10;76.20;;;;;;10491402;28;20041;-56
2023/10/01 19:21:09;;;;;;;11.32;5.10;;;20.10;76.20;;;;;;10491749;28;20028;-56
2023/10/01 19:26:14;;;;;;;10.32;5.50;;;20.10;76.30;;;;;;10484570;28;20044;-57
2023/10/01 19:31:15;;;;;;;8.88;5.15;;;20.10;76.40;;;;;;10487654;28;20177;-56
2023/10/01 19:36:17;;;;;;;11.85;5.63;;;20.10;76.50;;;;;;10488807;28;20441;-55
2023/10/01 19:41:18;;;;;;;8.88;5.10;;;20.20;76.40;;;;;;10491750;28;20111;-55
2023/10/01 19:46:19;;;;;;;10.88;5.20;;;20.20;76.20;;;;;;10491282;28;20032;-55
2023/10/01 19:51:23;;;;;;;11.90;6.15;;;20.10;76.10;;;;;;10482809;28;20040;-55
2023/10/01 19:56:24;;;;;;;9.88;4.97;;;20.10;76.20;;;;;;10449345;28;20187;-55
2023/10/01 20:01:30;;;;;;;7.35;4.95;;;20.10;76.10;;;;;;10459311;28;20025;-55
2023/10/01 20:06:38;;;;;;;8.63;4.90;;;20.10;76.10;;;;;;10449156;28;20043;-56
2023/10/01 20:11:38;;;;;;;7.10;4.43;;;20.00;76.10;;;;;;10449272;28;20025;-56
2023/10/01 20:16:39;;;;;;;8.77;4.60;;;20.00;76.10;;;;;;10448634;28;20045;-56
2023/10/01 20:21:40;;;;;;;10.65;5.53;;;20.00;76.00;;;;;;10449333;28;20035;-56
2023/10/01 20:26:42;;;;;;;6.97;5.00;;;20.00;76.00;;;;;;10462332;28;20025;-56
2023/10/01 20:31:45;;;;;;;7.97;5.03;;;20.00;76.00;;;;;;10473264;28;20241;-56
2023/10/01 20:36:50;;;;;;;8.82;5.50;;;20.00;76.00;;;;;;10447331;28;20540;-56
2023/10/01 20:41:55;;;;;;;9.10;5.40;;;20.00;76.00;;;;;;10449159;28;20028;-55
2023/10/01 20:46:57;;;;;;;7.07;4.82;;;20.00;76.10;;;;;;10448860;28;20025;-56
2023/10/01 20:52:02;;;;;;;8.55;5.22;;;20.00;76.10;;;;;;10448788;28;20036;-55
2023/10/01 20:57:02;;;;;;;9.20;6.05;;;20.00;76.10;;;;;;10461678;28;20469;-56
2023/10/01 21:02:08;;;;;;;8.90;5.15;;;20.00;76.00;;;;;;10466272;28;20033;-55
2023/10/01 21:07:31;;;;;;;8.68;5.05;;;20.00;76.00;;;;;;10455993;28;20381;-56
2023/10/01 21:12:32;;;;;;;6.35;4.45;;;19.90;76.00;;;;;;10456077;28;20052;-56
2023/10/01 21:17:33;;;;;;;7.45;4.55;;;19.90;76.00;;;;;;10455609;28;20040;-56
2023/10/01 21:22:34;;;;;;;9.00;5.43;;;19.90;76.00;;;;;;10455767;28;20029;-55
2023/10/01 21:27:37;;;;;;;7.35;5.20;;;20.00;76.00;;;;;;10481381;28;20036;-56
2023/10/01 21:32:38;;;;;;;9.32;6.05;;;19.90;75.90;;;;;;10473124;28;20029;-55
2023/10/01 21:37:40;;;;;;;6.68;4.15;;;20.00;76.00;;;;;;10480562;28;20150;-55
2023/10/01 21:42:41;;;;;;;7.03;4.68;;;19.90;75.90;;;;;;10454585;28;20040;-56
2023/10/01 21:47:43;;;;;;;9.93;5.25;;;19.90;75.90;;;;;;10454104;28;20385;-56
2023/10/01 21:52:43;;;;;;;8.43;5.43;;;19.90;75.90;;;;;;10454590;28;20587;-55
2023/10/01 21:57:44;;;;;;;8.23;4.47;;;19.90;75.90;;;;;;10453818;28;20033;-56
2023/10/01 22:03:03;;;;;;;7.50;5.30;;;19.90;75.90;;;;;;10454247;28;20159;-56
2023/10/01 22:08:25;;;;;;;7.57;4.72;;;19.90;76.00;;;;;;10466901;28;20063;-56
2023/10/01 22:13:28;;;;;;;7.20;4.85;;;19.90;75.90;;;;;;10453375;28;20037;-56
2023/10/01 22:18:31;;;;;;;7.75;5.53;;;19.90;75.90;;;;;;10468359;28;20033;-56
2023/10/01 22:23:34;;;;;;;7.25;4.70;;;19.90;75.90;;;;;;10468728;28;20104;-56
2023/10/01 22:28:35;;;;;;;6.38;4.85;;;19.90;75.90;;;;;;10482732;28;20033;-56
2023/10/01 22:33:36;;;;;;;7.57;5.00;;;19.90;75.90;;;;;;10448494;28;20113;-55
2023/10/01 22:38:39;;;;;;;8.32;5.10;;;19.90;75.80;;;;;;10452429;28;20035;-55
2023/10/01 22:43:58;;;;;;;7.40;5.03;;;19.90;75.90;;;;;;10452496;28;20021;-56
2023/10/01 22:49:00;;;;;;;7.20;4.53;;;19.90;75.90;;;;;;10479713;28;20241;-55
2023/10/01 22:54:04;;;;;;;8.95;5.95;;;19.90;75.80;;;;;;10493755;28;20024;-55
2023/10/01 22:59:05;;;;;;;6.28;4.70;;;19.90;75.80;;;;;;10469592;28;20079;-56
2023/10/01 23:04:16;;;;;;;6.95;4.60;;;19.90;75.80;;;;;;10451805;28;20082;-56
2023/10/01 23:09:17;;;;;;;6.35;3.92;;;19.90;75.80;;;;;;10451333;28;20029;-55
2023/10/01 23:14:20;;;;;;;7.55;4.38;;;19.90;75.80;;;;;;10451182;28;20037;-56
2023/10/01 23:19:36;;;;;;;7.25;4.60;;;19.90;75.70;;;;;;10451086;28;20090;-56
2023/10/01 23:24:40;;;;;;;8.20;5.88;;;19.90;75.80;;;;;;10477887;28;20028;-55
2023/10/01 23:29:41;;;;;;;7.28;4.82;;;19.90;75.80;;;;;;10478883;28;20411;-56
2023/10/01 23:34:43;;;;;;;7.72;5.15;;;19.90;75.80;;;;;;10450375;28;20033;-56
2023/10/01 23:39:45;;;;;;;7.43;5.13;;;19.80;75.80;;;;;;10450220;28;20056;-56
2023/10/01 23:44:56;;;;;;;7.13;5.45;;;19.90;75.80;;;;;;10462355;28;20037;-56
2023/10/01 23:55:31;;;;;;;7.90;4.93;;;19.80;75.70;;;;;;10450045;28;20073;-56
